sensor_id;sensor_type;location;lat;lon;timestamp;P1;durP1;ratioP1;P2;durP2;ratioP2
4391;SDS011;2210;51.938;8.488;2023-03-01T00:01:05;9.25;;;4.13;;
4391;SDS011;2210;51.938;8.488;2023-03-01T00:05:10;5.47;;;4.53;;
4391;SDS011;2210;51.938;8.488;2023-03-01T00:09:10;6.22;;;4.90;;
4391;SDS011;2210;51.938;8.488;2023-03-01T00:13:10;6.13;;;4.70;;
4391;SDS011;2210;51.938;8.488;2023-03-01T00:17:10;4.97;;;4.57;;
4391;SDS011;2210;51.938;8.488;2023-03-01T00:21:11;6.03;;;4.73;;
4391;SDS011;2210;51.938;8.488;2023-03-01T00:25:15;8.13;;;4.60;;
4391;SDS011;2210;51.938;8.488;2023-03-01T00:29:22;5.00;;;4.50;;
4391;SDS011;2210;51.938;8.488;2023-03-01T00:33:26;5.40;;;4.30;;
4391;SDS011;2210;51.938;8.488;2023-03-01T00:37:32;4.63;;;4.23;;
4391;SDS011;2210;51.938;8.488;2023-03-01T00:41:33;5.50;;;4.60;;
4391;SDS011;2210;51.938;8.488;2023-03-01T00:45:40;5.70;;;5.00;;
4391;SDS011;2210;51.938;8.488;2023-03-01T00:49:43;5.93;;;4.47;;
4391;SDS011;2210;51.938;8.488;2023-03-01T00:53:47;4.60;;;4.20;;
4391;SDS011;2210;51.938;8.488;2023-03-01T00:57:50;4.80;;;4.40;;
4391;SDS011;2210;51.938;8.488;2023-03-01T01:01:51;5.43;;;4.63;;
4391;SDS011;2210;51.938;8.488;2023-03-01T01:05:51;5.38;;;4.82;;
4391;SDS011;2210;51.938;8.488;2023-03-01T01:09:52;4.83;;;4.07;;
4391;SDS011;2210;51.938;8.488;2023-03-01T01:13:53;5.60;;;4.40;;
4391;SDS011;2210;51.938;8.488;2023-03-01T01:17:53;11.90;;;4.27;;
4391;SDS011;2210;51.938;8.488;2023-03-01T01:21:54;5.53;;;4.13;;
4391;SDS011;2210;51.938;8.488;2023-03-01T01:25:54;5.07;;;4.07;;
4391;SDS011;2210;51.938;8.488;2023-03-01T01:29:55;5.23;;;4.10;;
4391;SDS011;2210;51.938;8.488;2023-03-01T01:33:55;6.40;;;4.18;;
4391;SDS011;2210;51.938;8.488;2023-03-01T01:37:56;6.20;;;4.40;;
4391;SDS011;2210;51.938;8.488;2023-03-01T01:42:05;6.97;;;3.95;;
4391;SDS011;2210;51.938;8.488;2023-03-01T01:46:26;4.67;;;4.23;;
4391;SDS011;2210;51.938;8.488;2023-03-01T01:50:30;5.00;;;4.50;;
4391;SDS011;2210;51.938;8.488;2023-03-01T01:54:42;4.50;;;4.10;;
4391;SDS011;2210;51.938;8.488;2023-03-01T01:58:48;4.50;;;3.87;;
4391;SDS011;2210;51.938;8.488;2023-03-01T02:02:59;5.53;;;5.00;;
4391;SDS011;2210;51.938;8.488;2023-03-01T02:07:09;5.80;;;4.50;;
4391;SDS011;2210;51.938;8.488;2023-03-01T02:11:17;4.43;;;4.03;;
4391;SDS011;2210;51.938;8.488;2023-03-01T02:15:18;5.13;;;3.60;;
4391;SDS011;2210;51.938;8.488;2023-03-01T02:23:43;5.40;;;3.87;;
4391;SDS011;2210;51.938;8.488;2023-03-01T02:32:23;4.40;;;4.00;;
4391;SDS011;2210;51.938;8.488;2023-03-01T02:36:35;5.47;;;4.00;;
4391;SDS011;2210;51.938;8.488;2023-03-01T02:40:41;4.27;;;3.87;;
4391;SDS011;2210;51.938;8.488;2023-03-01T02:44:51;4.20;;;3.80;;
4391;SDS011;2210;51.938;8.488;2023-03-01T02:48:53;3.90;;;3.60;;
4391;SDS011;2210;51.938;8.488;2023-03-01T02:53:08;5.80;;;3.90;;
4391;SDS011;2210;51.938;8.488;2023-03-01T02:57:15;4.47;;;4.07;;
4391;SDS011;2210;51.938;8.488;2023-03-01T03:01:15;4.13;;;3.73;;
4391;SDS011;2210;51.938;8.488;2023-03-01T03:05:23;4.13;;;3.50;;
4391;SDS011;2210;51.938;8.488;2023-03-01T03:09:26;3.90;;;3.40;;
4391;SDS011;2210;51.938;8.488;2023-03-01T03:13:29;4.17;;;3.80;;
4391;SDS011;2210;51.938;8.488;2023-03-01T03:17:29;4.23;;;3.83;;
4391;SDS011;2210;51.938;8.488;2023-03-01T03:21:30;5.05;;;3.53;;
4391;SDS011;2210;51.938;8.488;2023-03-01T03:25:35;4.63;;;3.90;;
4391;SDS011;2210;51.938;8.488;2023-03-01T03:29:37;4.30;;;3.90;;
4391;SDS011;2210;51.938;8.488;2023-03-01T03:33:41;3.80;;;3.47;;
4391;SDS011;2210;51.938;8.488;2023-03-01T03:37:41;5.50;;;4.07;;
4391;SDS011;2210;51.938;8.488;2023-03-01T03:42:06;5.10;;;4.03;;
4391;SDS011;2210;51.938;8.488;2023-03-01T03:46:06;4.43;;;3.83;;
4391;SDS011;2210;51.938;8.488;2023-03-01T03:50:11;4.33;;;3.93;;
4391;SDS011;2210;51.938;8.488;2023-03-01T03:54:12;5.00;;;4.17;;
4391;SDS011;2210;51.938;8.488;2023-03-01T03:58:12;4.57;;;3.57;;
4391;SDS011;2210;51.938;8.488;2023-03-01T04:02:19;6.80;;;4.05;;
4391;SDS011;2210;51.938;8.488;2023-03-01T04:06:25;5.00;;;4.30;;
4391;SDS011;2210;51.938;8.488;2023-03-01T04:10:32;4.73;;;4.23;;
4391;SDS011;2210;51.938;8.488;2023-03-01T04:14:38;6.10;;;3.97;;
4391;SDS011;2210;51.938;8.488;2023-03-01T04:18:45;5.10;;;4.50;;
4391;SDS011;2210;51.938;8.488;2023-03-01T04:22:45;8.67;;;3.80;;
4391;SDS011;2210;51.938;8.488;2023-03-01T04:26:46;8.00;;;4.33;;
4391;SDS011;2210;51.938;8.488;2023-03-01T04:30:47;4.18;;;3.83;;
4391;SDS011;2210;51.938;8.488;2023-03-01T04:34:47;4.67;;;4.27;;
4391;SDS011;2210;51.938;8.488;2023-03-01T04:38:50;5.32;;;4.10;;
4391;SDS011;2210;51.938;8.488;2023-03-01T04:42:54;4.23;;;3.83;;
4391;SDS011;2210;51.938;8.488;2023-03-01T04:46:54;7.83;;;6.50;;
4391;SDS011;2210;51.938;8.488;2023-03-01T04:50:58;7.05;;;5.05;;
4391;SDS011;2210;51.938;8.488;2023-03-01T04:54:59;4.63;;;4.10;;
4391;SDS011;2210;51.938;8.488;2023-03-01T04:58:59;4.47;;;4.07;;
4391;SDS011;2210;51.938;8.488;2023-03-01T05:03:00;4.73;;;4.03;;
4391;SDS011;2210;51.938;8.488;2023-03-01T05:07:07;9.00;;;3.93;;
4391;SDS011;2210;51.938;8.488;2023-03-01T05:11:11;3.40;;;3.10;;
4391;SDS011;2210;51.938;8.488;2023-03-01T05:15:12;4.00;;;3.70;;
4391;SDS011;2210;51.938;8.488;2023-03-01T05:19:15;5.10;;;4.23;;
4391;SDS011;2210;51.938;8.488;2023-03-01T05:23:22;5.57;;;4.10;;
4391;SDS011;2210;51.938;8.488;2023-03-01T05:27:23;7.20;;;3.90;;
4391;SDS011;2210;51.938;8.488;2023-03-01T05:31:23;4.53;;;3.85;;
4391;SDS011;2210;51.938;8.488;2023-03-01T05:35:24;6.18;;;4.43;;
4391;SDS011;2210;51.938;8.488;2023-03-01T05:39:25;4.80;;;4.20;;
4391;SDS011;2210;51.938;8.488;2023-03-01T05:43:29;5.60;;;4.50;;
4391;SDS011;2210;51.938;8.488;2023-03-01T05:47:43;5.97;;;4.73;;
4391;SDS011;2210;51.938;8.488;2023-03-01T05:51:53;9.27;;;4.70;;
4391;SDS011;2210;51.938;8.488;2023-03-01T05:55:54;4.80;;;4.30;;
4391;SDS011;2210;51.938;8.488;2023-03-01T05:59:54;8.05;;;4.57;;
4391;SDS011;2210;51.938;8.488;2023-03-01T06:03:55;5.10;;;3.92;;
4391;SDS011;2210;51.938;8.488;2023-03-01T06:08:06;6.90;;;5.67;;
4391;SDS011;2210;51.938;8.488;2023-03-01T06:12:07;5.80;;;5.00;;
4391;SDS011;2210;51.938;8.488;2023-03-01T06:16:07;7.20;;;5.47;;
4391;SDS011;2210;51.938;8.488;2023-03-01T06:20:12;8.00;;;5.63;;
4391;SDS011;2210;51.938;8.488;2023-03-01T06:24:14;7.07;;;4.67;;
4391;SDS011;2210;51.938;8.488;2023-03-01T06:28:14;5.05;;;4.50;;
4391;SDS011;2210;51.938;8.488;2023-03-01T06:32:15;6.50;;;4.40;;
4391;SDS011;2210;51.938;8.488;2023-03-01T06:36:15;5.80;;;4.70;;
4391;SDS011;2210;51.938;8.488;2023-03-01T06:40:18;10.30;;;4.50;;
4391;SDS011;2210;51.938;8.488;2023-03-01T06:44:22;6.07;;;5.40;;
4391;SDS011;2210;51.938;8.488;2023-03-01T06:48:22;5.40;;;4.50;;
4391;SDS011;2210;51.938;8.488;2023-03-01T06:52:22;5.03;;;4.53;;
4391;SDS011;2210;51.938;8.488;2023-03-01T06:56:25;6.07;;;4.97;;
4391;SDS011;2210;51.938;8.488;2023-03-01T07:00:35;5.77;;;4.70;;
4391;SDS011;2210;51.938;8.488;2023-03-01T07:04:44;8.73;;;5.33;;
4391;SDS011;2210;51.938;8.488;2023-03-01T07:08:44;11.40;;;6.17;;
4391;SDS011;2210;51.938;8.488;2023-03-01T07:12:44;7.33;;;5.40;;
4391;SDS011;2210;51.938;8.488;2023-03-01T07:16:58;5.90;;;5.30;;
4391;SDS011;2210;51.938;8.488;2023-03-01T07:21:03;5.10;;;4.60;;
4391;SDS011;2210;51.938;8.488;2023-03-01T07:25:13;5.40;;;4.80;;
4391;SDS011;2210;51.938;8.488;2023-03-01T07:29:13;5.43;;;4.93;;
4391;SDS011;2210;51.938;8.488;2023-03-01T07:33:13;7.95;;;5.47;;
4391;SDS011;2210;51.938;8.488;2023-03-01T07:37:14;6.30;;;5.20;;
4391;SDS011;2210;51.938;8.488;2023-03-01T07:41:14;7.43;;;5.57;;
4391;SDS011;2210;51.938;8.488;2023-03-01T07:45:24;5.50;;;4.60;;
4391;SDS011;2210;51.938;8.488;2023-03-01T07:49:25;9.17;;;5.43;;
4391;SDS011;2210;51.938;8.488;2023-03-01T07:53:29;6.17;;;5.40;;
4391;SDS011;2210;51.938;8.488;2023-03-01T07:57:31;9.10;;;5.67;;
4391;SDS011;2210;51.938;8.488;2023-03-01T08:01:31;5.73;;;5.07;;
4391;SDS011;2210;51.938;8.488;2023-03-01T08:05:31;9.33;;;6.00;;
4391;SDS011;2210;51.938;8.488;2023-03-01T08:09:34;6.10;;;5.50;;
4391;SDS011;2210;51.938;8.488;2023-03-01T08:13:38;4.87;;;4.40;;
4391;SDS011;2210;51.938;8.488;2023-03-01T08:17:39;5.87;;;4.90;;
4391;SDS011;2210;51.938;8.488;2023-03-01T08:21:39;6.50;;;5.10;;
4391;SDS011;2210;51.938;8.488;2023-03-01T08:25:45;5.63;;;5.03;;
4391;SDS011;2210;51.938;8.488;2023-03-01T08:29:45;5.27;;;4.77;;
4391;SDS011;2210;51.938;8.488;2023-03-01T08:33:46;6.27;;;4.47;;
4391;SDS011;2210;51.938;8.488;2023-03-01T08:37:54;5.70;;;4.80;;
4391;SDS011;2210;51.938;8.488;2023-03-01T08:41:55;4.60;;;4.20;;
4391;SDS011;2210;51.938;8.488;2023-03-01T08:45:55;5.50;;;4.40;;
4391;SDS011;2210;51.938;8.488;2023-03-01T08:49:59;5.20;;;4.37;;
4391;SDS011;2210;51.938;8.488;2023-03-01T08:53:59;7.10;;;4.80;;
4391;SDS011;2210;51.938;8.488;2023-03-01T08:58:12;4.88;;;3.85;;
4391;SDS011;2210;51.938;8.488;2023-03-01T09:02:13;3.73;;;3.30;;
4391;SDS011;2210;51.938;8.488;2023-03-01T09:06:18;4.30;;;3.63;;
4391;SDS011;2210;51.938;8.488;2023-03-01T09:10:37;4.50;;;3.80;;
4391;SDS011;2210;51.938;8.488;2023-03-01T09:14:39;4.93;;;4.43;;
4391;SDS011;2210;51.938;8.488;2023-03-01T09:18:44;8.80;;;5.07;;
4391;SDS011;2210;51.938;8.488;2023-03-01T09:22:45;5.20;;;4.33;;
4391;SDS011;2210;51.938;8.488;2023-03-01T09:26:45;5.40;;;4.30;;
4391;SDS011;2210;51.938;8.488;2023-03-01T09:30:47;4.30;;;3.90;;
4391;SDS011;2210;51.938;8.488;2023-03-01T09:34:50;5.03;;;4.15;;
4391;SDS011;2210;51.938;8.488;2023-03-01T09:39:06;5.20;;;4.10;;
4391;SDS011;2210;51.938;8.488;2023-03-01T09:43:07;6.40;;;4.33;;
4391;SDS011;2210;51.938;8.488;2023-03-01T09:47:23;4.53;;;3.87;;
4391;SDS011;2210;51.938;8.488;2023-03-01T09:51:37;5.50;;;4.70;;
4391;SDS011;2210;51.938;8.488;2023-03-01T10:00:19;4.47;;;3.73;;
4391;SDS011;2210;51.938;8.488;2023-03-01T10:04:46;4.23;;;3.83;;
4391;SDS011;2210;51.938;8.488;2023-03-01T10:08:58;4.20;;;3.27;;
4391;SDS011;2210;51.938;8.488;2023-03-01T10:13:17;4.30;;;3.70;;
4391;SDS011;2210;51.938;8.488;2023-03-01T10:17:44;6.43;;;3.97;;
4391;SDS011;2210;51.938;8.488;2023-03-01T10:22:24;5.30;;;3.80;;
4391;SDS011;2210;51.938;8.488;2023-03-01T10:26:54;5.33;;;4.20;;
4391;SDS011;2210;51.938;8.488;2023-03-01T10:31:07;5.27;;;4.53;;
4391;SDS011;2210;51.938;8.488;2023-03-01T10:39:25;4.80;;;4.40;;
4391;SDS011;2210;51.938;8.488;2023-03-01T10:43:26;4.47;;;4.07;;
4391;SDS011;2210;51.938;8.488;2023-03-01T10:47:47;4.60;;;4.20;;
4391;SDS011;2210;51.938;8.488;2023-03-01T10:56:24;5.67;;;5.00;;
4391;SDS011;2210;51.938;8.488;2023-03-01T11:00:28;6.00;;;4.27;;
4391;SDS011;2210;51.938;8.488;2023-03-01T11:13:54;3.50;;;3.20;;
4391;SDS011;2210;51.938;8.488;2023-03-01T11:18:02;5.20;;;3.50;;
4391;SDS011;2210;51.938;8.488;2023-03-01T11:26:25;3.67;;;3.37;;
4391;SDS011;2210;51.938;8.488;2023-03-01T11:35:19;5.43;;;3.53;;
4391;SDS011;2210;51.938;8.488;2023-03-01T11:39:34;4.17;;;2.80;;
4391;SDS011;2210;51.938;8.488;2023-03-01T11:43:53;3.87;;;3.00;;
4391;SDS011;2210;51.938;8.488;2023-03-01T11:52:46;2.93;;;2.67;;
4391;SDS011;2210;51.938;8.488;2023-03-01T12:15:04;4.50;;;3.77;;
4391;SDS011;2210;51.938;8.488;2023-03-01T12:33:12;4.60;;;3.20;;
4391;SDS011;2210;51.938;8.488;2023-03-01T12:50:50;3.40;;;3.10;;
4391;SDS011;2210;51.938;8.488;2023-03-01T12:54:55;3.87;;;3.00;;
4391;SDS011;2210;51.938;8.488;2023-03-01T13:07:54;4.40;;;3.27;;
4391;SDS011;2210;51.938;8.488;2023-03-01T13:11:57;4.10;;;3.67;;
4391;SDS011;2210;51.938;8.488;2023-03-01T13:15:58;3.80;;;3.27;;
4391;SDS011;2210;51.938;8.488;2023-03-01T13:24:41;3.33;;;3.03;;
4391;SDS011;2210;51.938;8.488;2023-03-01T13:28:52;3.30;;;3.00;;
4391;SDS011;2210;51.938;8.488;2023-03-01T13:37:28;2.90;;;2.60;;
4391;SDS011;2210;51.938;8.488;2023-03-01T13:45:42;2.50;;;2.17;;
4391;SDS011;2210;51.938;8.488;2023-03-01T13:49:47;2.47;;;2.10;;
4391;SDS011;2210;51.938;8.488;2023-03-01T13:53:51;3.03;;;2.40;;
4391;SDS011;2210;51.938;8.488;2023-03-01T13:57:56;2.70;;;2.30;;
4391;SDS011;2210;51.938;8.488;2023-03-01T14:01:59;3.90;;;2.73;;
4391;SDS011;2210;51.938;8.488;2023-03-01T14:06:14;2.73;;;2.43;;
4391;SDS011;2210;51.938;8.488;2023-03-01T14:10:17;3.83;;;3.07;;
4391;SDS011;2210;51.938;8.488;2023-03-01T14:23:26;3.33;;;2.23;;
4391;SDS011;2210;51.938;8.488;2023-03-01T14:27:36;3.30;;;2.50;;
4391;SDS011;2210;51.938;8.488;2023-03-01T14:31:41;6.03;;;2.80;;
4391;SDS011;2210;51.938;8.488;2023-03-01T14:35:42;3.40;;;2.73;;
4391;SDS011;2210;51.938;8.488;2023-03-01T14:39:42;4.20;;;2.27;;
4391;SDS011;2210;51.938;8.488;2023-03-01T14:43:43;2.87;;;2.67;;
4391;SDS011;2210;51.938;8.488;2023-03-01T14:48:00;2.50;;;2.10;;
4391;SDS011;2210;51.938;8.488;2023-03-01T14:52:22;2.60;;;2.40;;
4391;SDS011;2210;51.938;8.488;2023-03-01T14:56:42;2.77;;;2.33;;
4391;SDS011;2210;51.938;8.488;2023-03-01T15:00:53;2.60;;;2.10;;
4391;SDS011;2210;51.938;8.488;2023-03-01T15:05:04;3.10;;;2.40;;
4391;SDS011;2210;51.938;8.488;2023-03-01T15:09:06;2.83;;;2.63;;
4391;SDS011;2210;51.938;8.488;2023-03-01T15:13:19;2.63;;;2.43;;
4391;SDS011;2210;51.938;8.488;2023-03-01T15:17:26;2.23;;;2.13;;
4391;SDS011;2210;51.938;8.488;2023-03-01T15:21:35;2.53;;;2.30;;
4391;SDS011;2210;51.938;8.488;2023-03-01T15:25:37;2.63;;;2.10;;
4391;SDS011;2210;51.938;8.488;2023-03-01T15:29:38;2.43;;;2.20;;
4391;SDS011;2210;51.938;8.488;2023-03-01T15:33:40;3.57;;;2.37;;
4391;SDS011;2210;51.938;8.488;2023-03-01T15:37:47;4.87;;;2.93;;
4391;SDS011;2210;51.938;8.488;2023-03-01T15:41:55;2.27;;;2.07;;
4391;SDS011;2210;51.938;8.488;2023-03-01T15:45:56;3.20;;;2.53;;
4391;SDS011;2210;51.938;8.488;2023-03-01T15:50:01;2.53;;;2.33;;
4391;SDS011;2210;51.938;8.488;2023-03-01T15:58:28;4.07;;;2.77;;
4391;SDS011;2210;51.938;8.488;2023-03-01T16:02:29;3.10;;;2.77;;
4391;SDS011;2210;51.938;8.488;2023-03-01T16:06:39;3.80;;;3.40;;
4391;SDS011;2210;51.938;8.488;2023-03-01T16:10:40;3.90;;;3.40;;
4391;SDS011;2210;51.938;8.488;2023-03-01T16:14:41;4.80;;;3.00;;
4391;SDS011;2210;51.938;8.488;2023-03-01T16:18:42;2.70;;;2.50;;
4391;SDS011;2210;51.938;8.488;2023-03-01T16:22:44;3.40;;;3.10;;
4391;SDS011;2210;51.938;8.488;2023-03-01T16:26:48;6.10;;;2.90;;
4391;SDS011;2210;51.938;8.488;2023-03-01T16:30:52;4.37;;;3.07;;
4391;SDS011;2210;51.938;8.488;2023-03-01T16:34:52;3.33;;;2.50;;
4391;SDS011;2210;51.938;8.488;2023-03-01T16:38:59;2.97;;;2.60;;
4391;SDS011;2210;51.938;8.488;2023-03-01T16:43:12;4.37;;;2.53;;
4391;SDS011;2210;51.938;8.488;2023-03-01T16:47:28;4.03;;;2.80;;
4391;SDS011;2210;51.938;8.488;2023-03-01T16:51:34;4.40;;;3.00;;
4391;SDS011;2210;51.938;8.488;2023-03-01T16:55:35;7.50;;;4.23;;
4391;SDS011;2210;51.938;8.488;2023-03-01T16:59:36;5.87;;;2.20;;
4391;SDS011;2210;51.938;8.488;2023-03-01T17:03:37;2.80;;;2.50;;
4391;SDS011;2210;51.938;8.488;2023-03-01T17:07:38;3.00;;;2.43;;
4391;SDS011;2210;51.938;8.488;2023-03-01T17:11:39;4.67;;;2.60;;
4391;SDS011;2210;51.938;8.488;2023-03-01T17:15:43;3.10;;;2.63;;
4391;SDS011;2210;51.938;8.488;2023-03-01T17:24:12;2.40;;;2.20;;
4391;SDS011;2210;51.938;8.488;2023-03-01T17:28:20;3.90;;;2.60;;
4391;SDS011;2210;51.938;8.488;2023-03-01T17:32:22;2.93;;;2.20;;
4391;SDS011;2210;51.938;8.488;2023-03-01T17:36:28;4.30;;;2.90;;
4391;SDS011;2210;51.938;8.488;2023-03-01T17:40:29;5.00;;;2.77;;
4391;SDS011;2210;51.938;8.488;2023-03-01T17:44:37;3.33;;;3.00;;
4391;SDS011;2210;51.938;8.488;2023-03-01T17:48:37;3.70;;;2.50;;
4391;SDS011;2210;51.938;8.488;2023-03-01T17:52:44;4.70;;;2.70;;
4391;SDS011;2210;51.938;8.488;2023-03-01T17:56:53;3.60;;;2.47;;
4391;SDS011;2210;51.938;8.488;2023-03-01T18:05:27;2.53;;;2.33;;
4391;SDS011;2210;51.938;8.488;2023-03-01T18:09:31;3.60;;;2.63;;
4391;SDS011;2210;51.938;8.488;2023-03-01T18:13:35;4.57;;;4.07;;
4391;SDS011;2210;51.938;8.488;2023-03-01T18:17:38;4.67;;;4.07;;
4391;SDS011;2210;51.938;8.488;2023-03-01T18:21:38;4.70;;;3.17;;
4391;SDS011;2210;51.938;8.488;2023-03-01T18:25:39;5.40;;;3.40;;
4391;SDS011;2210;51.938;8.488;2023-03-01T18:29:39;4.13;;;3.10;;
4391;SDS011;2210;51.938;8.488;2023-03-01T18:33:39;3.43;;;2.70;;
4391;SDS011;2210;51.938;8.488;2023-03-01T18:37:43;2.63;;;2.43;;
4391;SDS011;2210;51.938;8.488;2023-03-01T18:41:43;3.93;;;2.77;;
4391;SDS011;2210;51.938;8.488;2023-03-01T18:50:22;3.67;;;3.07;;
4391;SDS011;2210;51.938;8.488;2023-03-01T18:54:28;3.27;;;2.90;;
4391;SDS011;2210;51.938;8.488;2023-03-01T18:58:32;4.57;;;2.80;;
4391;SDS011;2210;51.938;8.488;2023-03-01T19:02:35;3.60;;;3.07;;
4391;SDS011;2210;51.938;8.488;2023-03-01T19:06:36;9.17;;;3.67;;
4391;SDS011;2210;51.938;8.488;2023-03-01T19:10:39;4.43;;;2.70;;
4391;SDS011;2210;51.938;8.488;2023-03-01T19:14:39;7.90;;;3.47;;
4391;SDS011;2210;51.938;8.488;2023-03-01T19:18:46;3.40;;;3.05;;
4391;SDS011;2210;51.938;8.488;2023-03-01T19:22:52;3.03;;;2.60;;
4391;SDS011;2210;51.938;8.488;2023-03-01T19:26:58;4.43;;;3.67;;
4391;SDS011;2210;51.938;8.488;2023-03-01T19:31:02;6.67;;;4.63;;
4391;SDS011;2210;51.938;8.488;2023-03-01T19:35:07;7.37;;;5.50;;
4391;SDS011;2210;51.938;8.488;2023-03-01T19:39:17;8.40;;;4.77;;
4391;SDS011;2210;51.938;8.488;2023-03-01T19:43:24;7.70;;;4.40;;
4391;SDS011;2210;51.938;8.488;2023-03-01T19:47:24;4.20;;;3.80;;
4391;SDS011;2210;51.938;8.488;2023-03-01T19:51:25;7.77;;;4.83;;
4391;SDS011;2210;51.938;8.488;2023-03-01T19:55:34;6.07;;;4.30;;
4391;SDS011;2210;51.938;8.488;2023-03-01T19:59:35;4.67;;;3.43;;
4391;SDS011;2210;51.938;8.488;2023-03-01T20:03:35;7.53;;;3.20;;
4391;SDS011;2210;51.938;8.488;2023-03-01T20:07:36;3.73;;;3.00;;
4391;SDS011;2210;51.938;8.488;2023-03-01T20:11:36;6.70;;;3.93;;
4391;SDS011;2210;51.938;8.488;2023-03-01T20:19:49;4.63;;;4.00;;
4391;SDS011;2210;51.938;8.488;2023-03-01T20:23:56;6.23;;;4.10;;
4391;SDS011;2210;51.938;8.488;2023-03-01T20:28:08;4.40;;;3.80;;
4391;SDS011;2210;51.938;8.488;2023-03-01T20:32:08;5.30;;;4.57;;
4391;SDS011;2210;51.938;8.488;2023-03-01T20:36:09;4.97;;;3.38;;
4391;SDS011;2210;51.938;8.488;2023-03-01T20:40:10;5.27;;;3.70;;
4391;SDS011;2210;51.938;8.488;2023-03-01T20:44:14;4.40;;;3.27;;
4391;SDS011;2210;51.938;8.488;2023-03-01T20:48:17;3.43;;;3.13;;
4391;SDS011;2210;51.938;8.488;2023-03-01T20:52:20;5.63;;;3.57;;
4391;SDS011;2210;51.938;8.488;2023-03-01T20:56:21;5.70;;;3.47;;
4391;SDS011;2210;51.938;8.488;2023-03-01T21:00:28;3.87;;;2.90;;
4391;SDS011;2210;51.938;8.488;2023-03-01T21:04:29;5.80;;;3.50;;
4391;SDS011;2210;51.938;8.488;2023-03-01T21:08:35;5.20;;;3.75;;
4391;SDS011;2210;51.938;8.488;2023-03-01T21:12:42;4.90;;;4.00;;
4391;SDS011;2210;51.938;8.488;2023-03-01T21:16:58;3.87;;;3.30;;
4391;SDS011;2210;51.938;8.488;2023-03-01T21:25:18;4.77;;;2.77;;
4391;SDS011;2210;51.938;8.488;2023-03-01T21:29:18;3.97;;;3.17;;
4391;SDS011;2210;51.938;8.488;2023-03-01T21:33:19;3.33;;;2.90;;
4391;SDS011;2210;51.938;8.488;2023-03-01T21:37:22;4.37;;;3.20;;
4391;SDS011;2210;51.938;8.488;2023-03-01T21:41:32;4.50;;;3.30;;
4391;SDS011;2210;51.938;8.488;2023-03-01T21:45:36;5.40;;;3.77;;
4391;SDS011;2210;51.938;8.488;2023-03-01T21:49:39;4.93;;;3.30;;
4391;SDS011;2210;51.938;8.488;2023-03-01T21:53:39;5.37;;;4.00;;
4391;SDS011;2210;51.938;8.488;2023-03-01T21:57:40;3.67;;;2.93;;
4391;SDS011;2210;51.938;8.488;2023-03-01T22:01:46;5.90;;;4.03;;
4391;SDS011;2210;51.938;8.488;2023-03-01T22:05:58;3.43;;;3.00;;
4391;SDS011;2210;51.938;8.488;2023-03-01T22:10:27;4.33;;;3.30;;
4391;SDS011;2210;51.938;8.488;2023-03-01T22:14:31;3.47;;;3.17;;
4391;SDS011;2210;51.938;8.488;2023-03-01T22:18:31;3.90;;;3.17;;
4391;SDS011;2210;51.938;8.488;2023-03-01T22:22:32;4.63;;;3.30;;
4391;SDS011;2210;51.938;8.488;2023-03-01T22:26:36;4.00;;;3.60;;
4391;SDS011;2210;51.938;8.488;2023-03-01T22:30:41;4.13;;;3.57;;
4391;SDS011;2210;51.938;8.488;2023-03-01T22:34:43;3.23;;;2.93;;
4391;SDS011;2210;51.938;8.488;2023-03-01T22:38:46;4.33;;;2.67;;
4391;SDS011;2210;51.938;8.488;2023-03-01T22:42:49;3.47;;;3.17;;
4391;SDS011;2210;51.938;8.488;2023-03-01T22:46:49;5.20;;;3.50;;
4391;SDS011;2210;51.938;8.488;2023-03-01T22:50:53;3.33;;;3.03;;
4391;SDS011;2210;51.938;8.488;2023-03-01T22:54:56;6.30;;;3.20;;
4391;SDS011;2210;51.938;8.488;2023-03-01T22:59:06;4.60;;;3.33;;
4391;SDS011;2210;51.938;8.488;2023-03-01T23:03:09;4.10;;;3.17;;
4391;SDS011;2210;51.938;8.488;2023-03-01T23:07:09;4.73;;;3.83;;
4391;SDS011;2210;51.938;8.488;2023-03-01T23:11:13;3.50;;;3.13;;
4391;SDS011;2210;51.938;8.488;2023-03-01T23:15:18;3.73;;;3.23;;
4391;SDS011;2210;51.938;8.488;2023-03-01T23:19:18;3.27;;;2.90;;
4391;SDS011;2210;51.938;8.488;2023-03-01T23:23:22;3.20;;;2.90;;
4391;SDS011;2210;51.938;8.488;2023-03-01T23:27:24;4.43;;;3.27;;
4391;SDS011;2210;51.938;8.488;2023-03-01T23:31:24;3.90;;;3.50;;
4391;SDS011;2210;51.938;8.488;2023-03-01T23:35:28;3.87;;;3.47;;
4391;SDS011;2210;51.938;8.488;2023-03-01T23:39:29;3.72;;;3.35;;
4391;SDS011;2210;51.938;8.488;2023-03-01T23:43:30;3.50;;;3.20;;
4391;SDS011;2210;51.938;8.488;2023-03-01T23:47:38;4.60;;;3.13;;
4391;SDS011;2210;51.938;8.488;2023-03-01T23:51:42;3.37;;;3.03;;
4391;SDS011;2210;51.938;8.488;2023-03-01T23:55:50;3.97;;;3.63;;
4391;SDS011;2210;51.938;8.488;2023-03-01T23:59:52;3.93;;;3.00;;
